Time;durP1;ratioP1;P1;durP2;ratioP2;P2;SDS_P1;SDS_P2;PMS_P1;PMS_P2;Temp;Humidity;BMP_temperature;BMP_pressure;BME280_temperature;BME280_humidity;BME280_pressure;Samples;Min_cycle;Max_cycle;Signal;HPM_P1;HPM_P2
2021/01/23 00:01:45;;;;;;;22.33;7.05;;;;;;;2.85;86.13;99557.16;4974157;28;20046;-54
2021/01/23 00:04:12;;;;;;;15.10;6.13;;;;;;;2.83;86.08;99548.38;4975099;28;20103;-51
2021/01/23 00:06:39;;;;;;;14.50;5.93;;;;;;;2.81;86.03;99550.56;4974659;28;20039;-50
2021/01/23 00:09:06;;;;;;;15.50;6.05;;;;;;;2.79;86.23;99547.31;4974352;28;20043;-53
2021/01/23 00:11:33;;;;;;;16.27;5.97;;;;;;;2.75;86.08;99544.28;4975034;28;20049;-55
2021/01/23 00:14:00;;;;;;;16.02;5.75;;;;;;;2.72;86.08;99548.41;4975005;28;20074;-51
2021/01/23 00:16:26;;;;;;;14.10;5.80;;;;;;;2.69;86.11;99543.44;4974361;28;20117;-51
2021/01/23 00:18:53;;;;;;;13.73;5.40;;;;;;;2.68;86.03;99543.72;4974230;28;20066;-54
2021/01/23 00:21:20;;;;;;;19.70;6.78;;;;;;;2.63;86.15;99532.72;4974171;28;20214;-53
2021/01/23 00:23:47;;;;;;;12.95;5.57;;;;;;;2.60;86.21;99536.06;4974737;28;20055;-52
2021/01/23 00:26:14;;;;;;;12.02;5.22;;;;;;;2.58;86.05;99532.75;4974823;28;20135;-50
2021/01/23 00:28:41;;;;;;;15.32;6.60;;;;;;;2.55;86.31;99528.63;4973680;28;20133;-48
2021/01/23 00:31:08;;;;;;;18.35;6.43;;;;;;;2.53;85.85;99530.00;4974850;28;20121;-53
2021/01/23 00:33:35;;;;;;;9.75;4.43;;;;;;;2.51;85.97;99529.47;4974302;28;20047;-49
2021/01/23 00:36:02;;;;;;;13.48;6.15;;;;;;;2.48;85.77;99519.81;4973862;28;20046;-56
2021/01/23 00:38:29;;;;;;;14.40;6.45;;;;;;;2.46;86.04;99515.69;4974283;28;20105;-55
2021/01/23 00:40:56;;;;;;;15.85;6.55;;;;;;;2.42;85.68;99515.44;4974321;28;20131;-52
2021/01/23 00:43:24;;;;;;;17.75;6.50;;;;;;;2.41;85.88;99511.84;4973709;28;20538;-54
2021/01/23 00:45:50;;;;;;;11.40;6.65;;;;;;;2.37;86.04;99505.28;4974205;28;20062;-52
2021/01/23 00:48:17;;;;;;;13.68;7.13;;;;;;;2.33;85.95;99506.94;4973879;28;20142;-53
2021/01/23 00:50:44;;;;;;;14.23;6.35;;;;;;;2.31;85.96;99505.56;4972347;28;20105;-55
2021/01/23 00:53:13;;;;;;;12.82;6.88;;;;;;;2.27;86.10;99493.44;4972623;28;20054;-56
2021/01/23 00:55:41;;;;;;;13.23;6.30;;;;;;;2.24;86.30;99500.31;4973089;28;20039;-55
2021/01/23 00:58:07;;;;;;;14.45;6.82;;;;;;;2.19;86.38;99497.59;4972037;28;20038;-57
2021/01/23 01:00:35;;;;;;;12.50;6.22;;;;;;;2.18;86.57;99498.72;4973851;28;20069;-51
2021/01/23 01:03:03;;;;;;;17.60;6.78;;;;;;;2.14;86.25;99491.28;4973528;28;20081;-57
2021/01/23 01:05:38;;;;;;;15.20;6.68;;;;;;;2.10;86.50;99485.50;4967460;28;20134;-54
2021/01/23 01:08:05;;;;;;;15.40;6.38;;;;;;;2.11;85.86;99494.56;4957579;28;20093;-53
2021/01/23 01:10:32;;;;;;;11.32;5.88;;;;;;;2.08;85.90;99490.44;4973125;28;20057;-55
2021/01/23 01:13:05;;;;;;;13.00;5.82;;;;;;;2.06;86.18;99487.16;4973841;28;20059;-52
2021/01/23 01:15:32;;;;;;;14.02;6.50;;;;;;;2.04;86.38;99490.16;4971428;28;20042;-54
2021/01/23 01:18:00;;;;;;;11.27;5.57;;;;;;;2.01;86.03;99485.22;4973106;28;20142;-53
2021/01/23 01:20:26;;;;;;;15.82;6.25;;;;;;;1.98;86.64;99485.81;4973537;28;20165;-53
2021/01/23 01:22:53;;;;;;;13.02;5.70;;;;;;;1.97;86.37;99486.91;4973486;28;20500;-51
2021/01/23 01:25:20;;;;;;;13.95;6.53;;;;;;;1.96;86.52;99481.66;4972712;28;20101;-54
2021/01/23 01:27:47;;;;;;;12.75;6.22;;;;;;;1.94;86.04;99478.38;4973650;28;20078;-52
2021/01/23 01:30:15;;;;;;;11.75;6.18;;;;;;;1.94;86.22;99483.88;4973349;28;20034;-53
2021/01/23 01:32:41;;;;;;;12.95;5.28;;;;;;;1.93;86.45;99477.53;4973076;28;20046;-56
2021/01/23 01:35:10;;;;;;;12.63;6.38;;;;;;;1.93;86.78;99471.22;4972942;28;20034;-53
2021/01/23 01:37:38;;;;;;;13.48;5.90;;;;;;;1.95;86.37;99466.28;4973636;28;20054;-55
2021/01/23 01:40:06;;;;;;;12.98;5.78;;;;;;;1.97;86.67;99475.91;4972513;28;20133;-53
2021/01/23 01:42:33;;;;;;;11.15;5.07;;;;;;;1.99;86.57;99472.88;4973377;28;20499;-56
2021/01/23 01:45:01;;;;;;;16.05;6.15;;;;;;;2.02;86.66;99464.03;4972446;28;20142;-53
2021/01/23 01:47:28;;;;;;;16.63;6.53;;;;;;;2.06;86.56;99459.63;4972870;28;20101;-53
2021/01/23 01:49:56;;;;;;;16.85;7.10;;;;;;;2.10;86.94;99463.50;4972930;28;20078;-54
2021/01/23 01:52:24;;;;;;;18.02;6.20;;;;;;;2.13;86.60;99454.69;4973255;28;20049;-58
2021/01/23 01:54:51;;;;;;;14.40;6.65;;;;;;;2.15;86.80;99457.97;4972103;28;20452;-54
2021/01/23 01:57:20;;;;;;;13.35;6.60;;;;;;;2.16;86.33;99459.63;4972887;28;20042;-59
2021/01/23 01:59:46;;;;;;;13.15;6.28;;;;;;;2.16;86.21;99453.31;4972451;28;20141;-52
2021/01/23 02:02:26;;;;;;;15.80;6.45;;;;;;;2.17;86.61;99446.69;4972766;28;20054;-56
2021/01/23 02:04:58;;;;;;;12.90;5.72;;;;;;;2.17;86.58;99450.28;4972925;28;20069;-55
2021/01/23 02:07:36;;;;;;;13.52;6.60;;;;;;;2.16;86.58;99440.38;4972230;28;20043;-57
2021/01/23 02:10:26;;;;;;;16.65;6.40;;;;;;;2.17;87.13;99435.69;4972701;28;20086;-52
2021/01/23 02:13:14;;;;;;;10.98;6.10;;;;;;;2.14;87.20;99437.06;4972572;28;20069;-52
2021/01/23 02:15:47;;;;;;;18.13;7.05;;;;;;;2.13;87.19;99440.91;4971927;28;20431;-57
2021/01/23 02:18:15;;;;;;;;;;;;;;;2.12;87.21;99447.53;4973088;28;20552;-51
2021/01/23 02:21:20;;;;;;;13.73;6.45;;;;;;;2.12;87.65;99439.28;4971856;28;20331;-54
2021/01/23 02:23:48;;;;;;;18.33;6.30;;;;;;;2.14;87.92;99433.50;4945478;28;20057;-54
2021/01/23 02:26:23;;;;;;;15.57;7.38;;;;;;;2.18;87.54;99427.16;4972192;28;20074;-57
2021/01/23 02:29:01;;;;;;;12.55;6.53;;;;;;;2.23;87.73;99429.88;4972119;28;20051;-57
2021/01/23 02:31:32;;;;;;;15.80;7.15;;;;;;;2.29;87.29;99420.50;4972777;28;20075;-56
2021/01/23 02:34:02;;;;;;;15.48;7.43;;;;;;;2.33;86.83;99416.09;4972499;28;20046;-58
2021/01/23 02:36:31;;;;;;;16.73;7.25;;;;;;;2.37;87.42;99414.44;4971968;28;20043;-56
2021/01/23 02:38:59;;;;;;;15.82;8.18;;;;;;;2.42;87.48;99413.56;4972376;28;20133;-56
2021/01/23 02:41:26;;;;;;;14.15;7.72;;;;;;;2.46;87.18;99405.59;4972445;28;20039;-53
2021/01/23 02:43:53;;;;;;;17.20;7.60;;;;;;;2.49;87.16;99402.28;4971293;28;20050;-56
2021/01/23 02:46:20;;;;;;;15.27;7.70;;;;;;;2.52;87.29;99404.47;4972463;28;20065;-56
2021/01/23 02:48:48;;;;;;;14.73;8.43;;;;;;;2.54;87.31;99405.84;4971964;28;20061;-56
2021/01/23 02:51:23;;;;;;;13.98;7.45;;;;;;;2.55;87.29;99399.22;4972327;28;20566;-58
2021/01/23 02:53:52;;;;;;;18.35;8.25;;;;;;;2.55;87.36;99399.22;4970599;28;20409;-57
2021/01/23 02:56:24;;;;;;;16.40;7.97;;;;;;;2.56;87.12;99397.28;4972096;28;20137;-52
2021/01/23 02:58:52;;;;;;;15.10;8.70;;;;;;;2.55;87.33;99406.66;4971310;28;20057;-55
2021/01/23 03:01:22;;;;;;;17.60;8.60;;;;;;;2.54;87.62;99400.31;4972340;28;20475;-55
2021/01/23 03:03:54;;;;;;;15.13;9.32;;;;;;;2.53;87.48;99398.69;4971218;28;20055;-57
2021/01/23 03:06:21;;;;;;;17.17;9.90;;;;;;;2.51;87.75;99398.13;4972248;28;20137;-57
2021/01/23 03:08:48;;;;;;;20.25;9.40;;;;;;;2.48;87.81;99397.88;4972095;28;20053;-51
2021/01/23 03:11:15;;;;;;;16.10;9.32;;;;;;;2.48;87.69;99395.94;4970593;28;20134;-54
2021/01/23 03:13:42;;;;;;;18.35;9.43;;;;;;;2.51;87.86;99389.03;4971670;28;20053;-56
2021/01/23 03:16:09;;;;;;;16.58;9.43;;;;;;;2.52;87.71;99390.69;4972057;28;20073;-52
2021/01/23 03:18:36;;;;;;;20.60;10.57;;;;;;;2.53;88.02;99378.56;4971505;28;20520;-54
2021/01/23 03:21:04;;;;;;;16.27;9.10;;;;;;;2.55;87.80;99379.94;4972414;28;20059;-59
2021/01/23 03:23:31;;;;;;;20.98;10.95;;;;;;;2.56;88.08;99375.25;4971745;28;20137;-57
2021/01/23 03:25:58;;;;;;;23.38;10.55;;;;;;;2.57;88.31;99379.66;4971554;28;20039;-56
2021/01/23 03:28:25;;;;;;;18.92;10.02;;;;;;;2.58;88.13;99373.06;4974059;28;20083;-57
2021/01/23 03:30:51;;;;;;;17.13;9.82;;;;;;;2.59;88.18;99369.19;4975682;28;20054;-54
2021/01/23 03:33:18;;;;;;;18.95;11.32;;;;;;;2.58;88.42;99368.38;4974637;28;20494;-58
2021/01/23 03:35:45;;;;;;;19.08;10.65;;;;;;;2.57;88.83;99363.16;4975621;28;20039;-55
2021/01/23 03:38:12;;;;;;;18.40;11.35;;;;;;;2.57;88.65;99352.13;4974801;28;20469;-53
2021/01/23 03:40:39;;;;;;;20.17;11.98;;;;;;;2.56;89.30;99358.75;4975499;28;20054;-56
2021/01/23 03:43:06;;;;;;;18.08;10.50;;;;;;;2.58;89.24;99362.03;4975430;28;20137;-57
2021/01/23 03:45:33;;;;;;;19.38;11.88;;;;;;;2.57;88.91;99344.69;4972749;28;20051;-60
2021/01/23 03:48:00;;;;;;;18.75;11.45;;;;;;;2.59;89.19;99341.66;4975235;28;20134;-57
2021/01/23 03:50:28;;;;;;;20.85;11.07;;;;;;;2.57;89.44;99336.44;4975307;28;20061;-58
2021/01/23 03:52:54;;;;;;;16.83;11.45;;;;;;;2.57;89.75;99339.19;4974768;28;20042;-57
2021/01/23 03:55:22;;;;;;;17.33;12.18;;;;;;;2.61;89.24;99340.25;4974828;28;20078;-61
2021/01/23 03:57:49;;;;;;;20.48;12.52;;;;;;;2.60;89.78;99330.34;4975239;28;20084;-60
2021/01/23 04:00:16;;;;;;;20.08;11.15;;;;;;;2.62;89.91;99332.81;4974185;28;20051;-59
2021/01/23 04:02:43;;;;;;;21.25;12.23;;;;;;;2.64;90.15;99333.34;4975070;28;20493;-56
2021/01/23 04:05:11;;;;;;;21.55;12.75;;;;;;;2.67;90.00;99327.28;4974525;28;20041;-59
2021/01/23 04:07:38;;;;;;;19.95;13.25;;;;;;;2.68;90.21;99328.91;4974712;28;20141;-57
2021/01/23 04:10:06;;;;;;;20.08;12.68;;;;;;;2.68;90.53;99331.69;4974646;28;20046;-60
2021/01/23 04:12:34;;;;;;;23.90;13.30;;;;;;;2.69;90.67;99322.31;4974940;28;20050;-58
2021/01/23 04:15:01;;;;;;;22.65;14.02;;;;;;;2.69;90.73;99325.88;4974357;28;20129;-58
2021/01/23 04:17:28;;;;;;;21.90;14.48;;;;;;;2.71;90.78;99322.84;4975045;28;20125;-61
2021/01/23 04:19:55;;;;;;;26.40;15.27;;;;;;;2.74;91.00;99305.75;4974515;28;20389;-58
2021/01/23 04:22:22;;;;;;;22.23;14.60;;;;;;;2.73;90.83;99306.88;4974280;28;20059;-59
2021/01/23 04:24:49;;;;;;;17.75;12.98;;;;;;;2.74;90.82;99305.75;4974456;28;20113;-61
2021/01/23 04:27:16;;;;;;;26.48;15.65;;;;;;;2.75;90.60;99310.16;4974777;28;20142;-60
2021/01/23 04:29:44;;;;;;;21.42;14.30;;;;;;;2.75;90.92;99307.41;4974929;28;20463;-60
2021/01/23 04:32:11;;;;;;;21.17;14.45;;;;;;;2.74;90.88;99298.31;4974432;28;20051;-57
2021/01/23 04:34:38;;;;;;;23.05;15.45;;;;;;;2.73;91.10;99302.19;4973880;28;20054;-56
2021/01/23 04:37:04;;;;;;;21.33;14.95;;;;;;;2.72;91.06;99292.28;4974151;28;20138;-57
2021/01/23 04:39:31;;;;;;;25.73;16.90;;;;;;;2.74;90.94;99292.00;4954764;28;20055;-60
2021/01/23 04:41:58;;;;;;;27.05;17.05;;;;;;;2.73;91.01;99291.16;4971656;28;20082;-61
2021/01/23 04:44:25;;;;;;;25.27;17.15;;;;;;;2.76;90.92;99292.53;4974425;28;20105;-61
2021/01/23 04:46:53;;;;;;;23.95;16.95;;;;;;;2.73;90.97;99288.41;4974220;28;20078;-63
2021/01/23 04:49:21;;;;;;;25.92;18.20;;;;;;;2.74;91.38;99278.22;4973646;28;20137;-63
2021/01/23 04:51:47;;;;;;;29.00;18.17;;;;;;;2.76;91.29;99287.03;4973853;28;20047;-64
2021/01/23 04:54:14;;;;;;;29.63;19.05;;;;;;;2.78;91.13;99281.22;4974326;28;20051;-63
2021/01/23 04:56:41;;;;;;;32.00;19.63;;;;;;;2.80;91.34;99277.06;4985370;28;20097;-58
2021/01/23 04:59:08;;;;;;;29.67;19.85;;;;;;;2.81;91.18;99269.59;4974357;28;20043;-63
2021/01/23 05:01:34;;;;;;;30.52;19.55;;;;;;;2.82;91.42;99280.34;4973941;28;20047;-60
2021/01/23 05:04:03;;;;;;;29.70;17.83;;;;;;;2.84;91.23;99275.38;4973475;28;20049;-59
2021/01/23 05:06:30;;;;;;;30.83;20.00;;;;;;;2.88;91.32;99276.44;4973640;28;20074;-58
2021/01/23 05:08:57;;;;;;;26.67;19.02;;;;;;;2.92;90.82;99273.94;4973618;28;20126;-60
2021/01/23 05:11:44;;;;;;;31.25;19.23;;;;;;;2.96;91.12;99275.84;4973375;28;20035;-58
2021/01/23 05:14:12;;;;;;;28.33;18.73;;;;;;;2.96;91.17;99270.34;4972180;28;20050;-63
2021/01/23 05:16:40;;;;;;;28.15;19.15;;;;;;;3.00;91.27;99263.09;4970778;28;20051;-63
2021/01/23 05:19:08;;;;;;;28.88;18.42;;;;;;;3.03;91.25;99268.03;4970151;28;20051;-56
2021/01/23 05:21:36;;;;;;;26.60;16.27;;;;;;;3.04;91.32;99264.19;4973436;28;20050;-59
2021/01/23 05:24:11;;;;;;;27.85;18.63;;;;;;;3.06;91.59;99259.22;4972852;28;20051;-60
2021/01/23 05:26:39;;;;;;;28.42;18.10;;;;;;;3.06;91.63;99270.22;4973667;28;20145;-62
2021/01/23 05:29:12;;;;;;;28.88;19.67;;;;;;;3.11;91.48;99280.41;4973518;28;20069;-58
2021/01/23 05:31:41;;;;;;;35.58;22.80;;;;;;;3.10;91.60;99271.31;4973169;28;20058;-59
2021/01/23 05:34:29;;;;;;;26.77;18.40;;;;;;;3.14;91.65;99268.78;4972830;28;20054;-57
2021/01/23 05:36:57;;;;;;;24.20;16.15;;;;;;;3.14;92.02;99260.53;4973220;28;20050;-57
2021/01/23 05:39:46;;;;;;;27.67;19.63;;;;;;;3.19;91.79;99279.78;4972744;28;20039;-59
2021/01/23 05:42:14;;;;;;;24.75;18.17;;;;;;;3.17;91.88;99286.69;4973324;28;20043;-55
2021/01/23 05:44:40;;;;;;;29.35;19.40;;;;;;;3.20;91.64;99281.41;4972555;28;20062;-59
2021/01/23 05:47:26;;;;;;;25.48;18.08;;;;;;;3.21;91.94;99282.22;4973181;28;20404;-55
2021/01/23 05:49:54;;;;;;;33.00;19.10;;;;;;;3.20;92.02;99280.59;4971875;28;20098;-57
2021/01/23 05:52:21;;;;;;;26.75;18.63;;;;;;;3.23;91.91;99282.75;4972595;28;20050;-60
2021/01/23 05:54:49;;;;;;;27.42;18.17;;;;;;;3.22;91.79;99279.19;4972692;28;20051;-55
2021/01/23 05:57:16;;;;;;;30.77;18.65;;;;;;;3.24;91.66;99265.09;4973154;28;20146;-58
2021/01/23 05:59:43;;;;;;;30.40;18.58;;;;;;;3.24;91.85;99265.94;4958685;28;20068;-58
2021/01/23 06:02:11;;;;;;;23.35;14.73;;;;;;;3.23;91.95;99268.97;4972131;28;20061;-57
2021/01/23 06:04:42;;;;;;;18.88;14.02;;;;;;;3.23;91.79;99269.81;4972631;28;20055;-53
2021/01/23 06:07:10;;;;;;;19.48;14.57;;;;;;;3.25;91.87;99258.47;4972293;28;20097;-59
2021/01/23 06:09:39;;;;;;;17.20;12.30;;;;;;;3.26;91.78;99263.72;4972482;28;20074;-57
2021/01/23 06:12:39;;;;;;;14.80;9.85;;;;;;;3.28;91.84;99288.22;4973013;28;20049;-56
2021/01/23 06:15:33;;;;;;;15.18;8.70;;;;;;;3.30;92.08;99308.06;4971840;28;20476;-61
2021/01/23 06:18:01;;;;;;;11.82;3.67;;;;;;;3.28;91.93;99310.28;4946565;28;20067;-53
2021/01/23 06:20:50;;;;;;;8.50;1.00;;;;;;;3.10;91.27;99309.88;4971930;28;20061;-58
2021/01/23 06:23:20;;;;;;;8.73;0.98;;;;;;;3.00;91.33;99300.88;4953794;28;20059;-55
2021/01/23 06:25:58;;;;;;;3.13;0.50;;;;;;;3.00;91.37;99284.34;4971791;28;20146;-53
2021/01/23 06:28:50;;;;;;;1.83;0.50;;;;;;;2.99;91.12;99294.56;4972357;28;20149;-58
2021/01/23 06:31:30;;;;;;;3.53;0.60;;;;;;;2.98;91.29;99295.66;4972505;28;20157;-54
2021/01/23 06:33:57;;;;;;;6.53;1.40;;;;;;;3.00;91.31;99293.41;4971942;28;20050;-55
2021/01/23 06:36:24;;;;;;;3.92;0.75;;;;;;;3.06;91.26;99292.28;4972131;28;20054;-53
2021/01/23 06:39:04;;;;;;;7.85;1.00;;;;;;;3.14;91.14;99287.25;4972472;28;20051;-57
2021/01/23 06:41:32;;;;;;;5.20;1.08;;;;;;;3.17;91.33;99286.69;4970894;28;20043;-58
2021/01/23 06:44:10;;;;;;;2.50;0.60;;;;;;;3.18;91.03;99282.81;4972452;28;20412;-58
2021/01/23 06:46:38;;;;;;;8.85;1.65;;;;;;;3.22;91.05;99281.94;4971368;28;20054;-58
2021/01/23 06:49:07;;;;;;;8.45;1.70;;;;;;;3.24;90.80;99284.41;4971806;28;20047;-55
2021/01/23 06:51:34;;;;;;;8.57;3.10;;;;;;;3.30;90.92;99284.06;4972324;28;20137;-56
2021/01/23 06:54:12;;;;;;;12.50;4.28;;;;;;;3.36;91.08;99282.09;4953344;28;20047;-60
2021/01/23 06:56:42;;;;;;;15.07;5.93;;;;;;;3.39;91.00;99278.78;4971292;28;20043;-57
2021/01/23 06:59:20;;;;;;;9.13;4.40;;;;;;;3.43;91.07;99274.28;4972291;28;20427;-57
2021/01/23 07:01:53;;;;;;;11.35;3.00;;;;;;;3.43;91.02;99279.81;4973221;28;20145;-57
2021/01/23 07:04:20;;;;;;;10.63;2.20;;;;;;;3.45;91.08;99281.16;4973275;28;20053;-58
2021/01/23 07:06:47;;;;;;;9.82;1.95;;;;;;;3.46;91.04;99282.00;4975160;28;20129;-57
2021/01/23 07:09:15;;;;;;;6.55;1.50;;;;;;;3.46;90.98;99285.56;4974721;28;20058;-54
2021/01/23 07:11:42;;;;;;;8.60;1.30;;;;;;;3.45;90.97;99269.31;4975086;28;20059;-55
2021/01/23 07:14:09;;;;;;;9.15;1.40;;;;;;;3.47;91.05;99269.84;4975540;28;20487;-61
2021/01/23 07:16:37;;;;;;;8.48;1.52;;;;;;;3.50;91.27;99279.47;4974531;28;20047;-60
2021/01/23 07:19:05;;;;;;;6.97;1.10;;;;;;;3.53;91.28;99278.91;4975444;28;20077;-58
2021/01/23 07:21:34;;;;;;;7.78;1.10;;;;;;;3.56;90.95;99289.34;4974628;28;20075;-55
2021/01/23 07:24:02;;;;;;;9.93;1.50;;;;;;;3.57;91.17;99291.00;4974479;28;20086;-60
2021/01/23 07:26:32;;;;;;;7.65;1.73;;;;;;;3.61;91.57;99289.28;4974367;28;20059;-61
2021/01/23 07:28:59;;;;;;;9.82;1.50;;;;;;;3.69;91.72;99288.66;4974903;28;20063;-56
2021/01/23 07:31:27;;;;;;;10.02;1.40;;;;;;;3.76;91.57;99281.69;4974281;28;20098;-56
2021/01/23 07:33:55;;;;;;;10.07;1.77;;;;;;;3.83;91.50;99294.28;4974889;28;20101;-60
2021/01/23 07:36:33;;;;;;;9.88;1.70;;;;;;;3.86;91.18;99296.47;4974577;28;20397;-60
2021/01/23 07:39:01;;;;;;;6.55;1.25;;;;;;;3.87;91.23;99292.59;4974654;28;20483;-55
2021/01/23 07:41:31;;;;;;;9.88;1.33;;;;;;;3.89;91.04;99287.59;4974626;28;20043;-58
2021/01/23 07:43:59;;;;;;;14.98;1.98;;;;;;;3.90;90.99;99298.34;4971323;28;20650;-62
2021/01/23 07:46:33;;;;;;;7.78;1.30;;;;;;;3.91;90.96;99301.91;4974273;28;20134;-65
2021/01/23 07:49:00;;;;;;;8.13;1.33;;;;;;;3.92;91.08;99300.81;4973822;28;20098;-66
2021/01/23 07:51:28;;;;;;;7.05;1.67;;;;;;;3.92;90.89;99298.06;4973727;28;20073;-64
2021/01/23 07:54:16;;;;;;;7.80;1.98;;;;;;;3.90;90.75;99305.78;4974368;28;20146;-64
2021/01/23 07:56:54;;;;;;;11.10;2.15;;;;;;;3.90;90.84;99308.56;4969440;28;20051;-63
2021/01/23 07:59:39;;;;;;;6.05;2.20;;;;;;;3.91;90.61;99304.69;4972913;28;20153;-62
2021/01/23 08:02:06;;;;;;;10.68;2.42;;;;;;;3.93;90.72;99303.28;4974061;28;20101;-61
2021/01/23 08:04:34;;;;;;;6.00;2.13;;;;;;;3.95;90.71;99314.03;4974295;28;20047;-62
2021/01/23 08:07:18;;;;;;;9.60;2.83;;;;;;;3.97;90.20;99318.13;4973762;28;20135;-64
2021/01/23 08:09:45;;;;;;;8.10;2.90;;;;;;;3.97;89.68;99312.63;4972267;28;20067;-61
2021/01/23 08:12:18;;;;;;;7.60;2.85;;;;;;;4.01;89.03;99312.81;4973633;28;20496;-58
2021/01/23 08:14:52;;;;;;;8.07;3.10;;;;;;;4.00;87.78;99316.69;4972748;28;20050;-56
2021/01/23 08:17:19;;;;;;;10.32;3.63;;;;;;;4.06;87.38;99319.13;4974060;28;20051;-53
2021/01/23 08:19:51;;;;;;;10.05;3.20;;;;;;;4.07;87.12;99317.19;4973250;28;20160;-59
2021/01/23 08:22:18;;;;;;;11.37;2.37;;;;;;;4.09;87.46;99324.06;4974473;28;20138;-56
2021/01/23 08:24:45;;;;;;;5.38;1.60;;;;;;;4.10;87.34;99324.88;4973500;28;20479;-55
2021/01/23 08:27:20;;;;;;;8.95;1.55;;;;;;;4.10;87.31;99330.41;4973309;28;20129;-56
2021/01/23 08:29:48;;;;;;;12.57;1.50;;;;;;;4.10;87.41;99333.16;4973602;28;20102;-54
2021/01/23 08:32:15;;;;;;;7.53;1.63;;;;;;;4.13;87.63;99343.63;4973780;28;20516;-59
2021/01/23 08:34:43;;;;;;;8.48;1.90;;;;;;;4.14;87.54;99325.94;4972725;28;20066;-59
2021/01/23 08:37:10;;;;;;;11.77;2.00;;;;;;;4.21;87.52;99334.66;4973547;28;20086;-55
2021/01/23 08:39:44;;;;;;;10.10;1.85;;;;;;;4.29;87.69;99335.97;4973282;28;20065;-57
2021/01/23 08:42:11;;;;;;;10.60;1.92;;;;;;;4.31;87.77;99336.50;4971787;28;20146;-57
2021/01/23 08:44:39;;;;;;;10.77;1.75;;;;;;;4.51;87.64;99333.47;4971876;28;20093;-54
2021/01/23 08:47:06;;;;;;;6.50;1.13;;;;;;;4.38;86.39;99325.91;4973453;28;20125;-54
2021/01/23 08:49:33;;;;;;;8.43;1.13;;;;;;;4.36;86.92;99325.41;4970748;28;20043;-55
2021/01/23 08:52:00;;;;;;;12.88;1.45;;;;;;;4.30;87.44;99337.59;4973572;28;20038;-58
2021/01/23 08:54:27;;;;;;;5.28;0.90;;;;;;;4.41;87.65;99339.94;4973284;28;20105;-58
2021/01/23 08:56:54;;;;;;;4.78;0.80;;;;;;;4.35;86.38;99338.38;4972706;28;20053;-53
2021/01/23 08:59:20;;;;;;;5.03;0.70;;;;;;;4.23;85.88;99340.72;4973089;28;20419;-55
2021/01/23 09:01:48;;;;;;;6.35;0.90;;;;;;;4.24;86.31;99345.13;4972697;28;20054;-58
2021/01/23 09:04:15;;;;;;;3.83;0.80;;;;;;;4.24;86.42;99341.53;4972628;28;20039;-54
2021/01/23 09:06:43;;;;;;;7.75;1.23;;;;;;;4.23;86.77;99343.47;4972954;28;20061;-56
2021/01/23 09:09:10;;;;;;;8.63;0.85;;;;;;;4.52;87.64;99345.34;4972516;28;20043;-55
2021/01/23 09:11:38;;;;;;;6.03;0.70;;;;;;;5.23;84.10;99349.81;4972737;28;20484;-54
2021/01/23 09:14:05;;;;;;;3.97;0.60;;;;;;;5.24;82.12;99341.22;4973133;28;20075;-58
2021/01/23 09:16:32;;;;;;;7.68;0.82;;;;;;;5.08;82.39;99339.81;4969731;28;20051;-56
2021/01/23 09:19:00;;;;;;;6.30;0.73;;;;;;;4.94;82.85;99344.47;4972716;28;20054;-52
2021/01/23 09:21:28;;;;;;;3.85;0.60;;;;;;;4.81;82.28;99349.59;4972600;28;20050;-55
2021/01/23 09:23:54;;;;;;;5.22;0.50;;;;;;;4.74;82.00;99345.59;4972267;28;20054;-55
2021/01/23 09:26:22;;;;;;;4.63;0.65;;;;;;;4.65;81.96;99356.47;4972299;28;20061;-57
2021/01/23 09:28:49;;;;;;;4.72;0.80;;;;;;;4.68;82.55;99355.88;4972770;28;20059;-57
2021/01/23 09:31:16;;;;;;;6.47;0.70;;;;;;;4.71;82.22;99351.72;4971695;28;20049;-55
2021/01/23 09:33:43;;;;;;;3.40;0.65;;;;;;;4.74;82.43;99353.88;4972674;28;20051;-58
2021/01/23 09:36:11;;;;;;;4.85;0.70;;;;;;;4.67;82.36;99362.53;4972275;28;20109;-53
2021/01/23 09:38:38;;;;;;;4.78;0.70;;;;;;;4.74;82.84;99353.88;4971893;28;20593;-60
2021/01/23 09:41:04;;;;;;;5.13;1.00;;;;;;;4.74;82.84;99371.28;4972262;28;20055;-54
2021/01/23 09:43:31;;;;;;;4.35;0.73;;;;;;;4.71;82.82;99362.75;4972558;28;20137;-59
2021/01/23 09:45:58;;;;;;;3.50;0.60;;;;;;;4.77;83.24;99369.88;4971223;28;20065;-53
2021/01/23 09:48:24;;;;;;;3.85;0.82;;;;;;;5.52;82.96;99362.34;4972292;28;20061;-57
2021/01/23 09:50:51;;;;;;;10.48;0.90;;;;;;;6.68;80.87;99366.78;4971835;28;20057;-59
2021/01/23 09:53:19;;;;;;;7.57;1.02;;;;;;;7.05;78.43;99368.44;4972058;28;20488;-59
2021/01/23 09:55:46;;;;;;;3.28;0.60;;;;;;;7.55;78.17;99369.19;4972097;28;20051;-57
2021/01/23 09:58:13;;;;;;;10.88;1.15;;;;;;;8.35;77.28;99372.94;4971184;28;20058;-58
2021/01/23 10:00:40;;;;;;;8.00;1.10;;;;;;;8.55;74.24;99366.78;4971949;28;20082;-54
2021/01/23 10:03:07;;;;;;;5.78;0.60;;;;;;;8.72;73.82;99370.75;4970395;28;20043;-57
2021/01/23 10:05:34;;;;;;;3.65;0.60;;;;;;;8.57;73.88;99381.19;4971614;28;20046;-55
2021/01/23 10:08:00;;;;;;;8.70;0.85;;;;;;;8.19;73.31;99378.03;4971711;28;20089;-58
2021/01/23 10:10:28;;;;;;;4.25;0.70;;;;;;;7.86;74.65;99380.31;4972017;28;20137;-54
2021/01/23 10:12:55;;;;;;;3.95;0.60;;;;;;;7.86;73.96;99385.88;4970789;28;20050;-60
2021/01/23 10:15:22;;;;;;;5.82;1.08;;;;;;;7.50;73.70;99380.41;4971702;28;20133;-57
2021/01/23 10:17:52;;;;;;;6.00;0.90;;;;;;;7.07;74.57;99387.53;4971647;28;20419;-61
2021/01/23 10:20:19;;;;;;;5.28;0.80;;;;;;;6.66;75.07;99387.63;4971337;28;20055;-58
2021/01/23 10:22:46;;;;;;;6.90;1.10;;;;;;;6.39;75.80;99388.47;4971630;28;20038;-55
2021/01/23 10:25:13;;;;;;;4.00;0.60;;;;;;;6.81;75.67;99388.09;4971640;28;20053;-53
2021/01/23 10:27:41;;;;;;;4.55;0.90;;;;;;;7.20;74.00;99395.81;4970428;28;20567;-59
2021/01/23 10:30:09;;;;;;;3.58;0.70;;;;;;;7.33;73.55;99398.88;4971862;28;20066;-54
2021/01/23 10:32:36;;;;;;;6.20;0.95;;;;;;;7.25;73.40;99398.47;4971426;28;20106;-58
2021/01/23 10:35:03;;;;;;;10.57;1.35;;;;;;;7.33;73.07;99402.47;4970991;28;20138;-56
2021/01/23 10:37:31;;;;;;;5.13;1.00;;;;;;;7.25;72.93;99403.22;4969703;28;20050;-62
2021/01/23 10:39:58;;;;;;;5.53;1.00;;;;;;;7.02;72.59;99402.34;4971662;28;20141;-55
2021/01/23 10:42:24;;;;;;;6.75;1.08;;;;;;;6.83;73.03;99405.25;4970789;28;20053;-61
2021/01/23 10:44:52;;;;;;;4.47;0.85;;;;;;;6.59;73.37;99406.63;4969208;28;20047;-55
2021/01/23 10:47:19;;;;;;;6.80;1.08;;;;;;;6.28;73.99;99410.00;4971018;28;20050;-56
2021/01/23 10:49:46;;;;;;;5.85;0.90;;;;;;;6.14;74.58;99409.16;4971265;28;20051;-55
2021/01/23 10:52:12;;;;;;;7.70;1.20;;;;;;;5.91;74.47;99415.66;4971352;28;20050;-55
2021/01/23 10:54:40;;;;;;;6.03;1.30;;;;;;;5.77;74.87;99418.38;4970608;28;20105;-51
2021/01/23 10:57:07;;;;;;;5.47;1.23;;;;;;;5.59;74.95;99420.06;4952219;28;20134;-58
2021/01/23 10:59:34;;;;;;;5.90;1.10;;;;;;;5.45;75.69;99433.81;4969342;28;20047;-56
2021/01/23 11:02:01;;;;;;;10.55;1.20;;;;;;;5.32;76.66;99422.69;4971201;28;20047;-49
2021/01/23 11:04:28;;;;;;;8.90;1.10;;;;;;;5.37;77.12;99434.50;4971142;28;20404;-60
2021/01/23 11:06:55;;;;;;;5.47;1.17;;;;;;;5.36;77.04;99427.34;4971045;28;20059;-55
2021/01/23 11:09:22;;;;;;;6.03;1.10;;;;;;;5.23;77.32;99438.31;4968598;28;20051;-54
2021/01/23 11:11:49;;;;;;;7.18;1.00;;;;;;;5.14;77.35;99425.16;4968845;28;20471;-57
2021/01/23 11:14:16;;;;;;;4.07;0.70;;;;;;;5.05;77.54;99429.72;4971047;28;20563;-56
2021/01/23 11:16:42;;;;;;;7.63;1.15;;;;;;;5.04;78.21;99427.25;4970804;28;20074;-57
2021/01/23 11:19:12;;;;;;;7.57;1.20;;;;;;;5.02;77.82;99433.06;4970848;28;20101;-57
2021/01/23 11:21:43;;;;;;;4.05;0.93;;;;;;;4.91;78.50;99434.34;4961356;28;20138;-55
2021/01/23 11:24:10;;;;;;;7.88;1.30;;;;;;;4.91;78.84;99436.28;4970618;28;20461;-55
2021/01/23 11:26:37;;;;;;;8.07;1.00;;;;;;;4.79;79.54;99429.25;4971103;28;20126;-56
2021/01/23 11:29:05;;;;;;;2.97;0.88;;;;;;;4.73;79.43;99446.19;4971095;28;20049;-57
2021/01/23 11:31:32;;;;;;;2.78;0.80;;;;;;;4.75;79.66;99432.91;4970505;28;20054;-53
2021/01/23 11:33:59;;;;;;;6.15;1.38;;;;;;;4.74;79.52;99443.13;4971001;28;20046;-55
2021/01/23 11:36:27;;;;;;;7.28;1.10;;;;;;;4.70;79.61;99446.75;4970175;28;20047;-51
2021/01/23 11:38:54;;;;;;;6.00;0.82;;;;;;;4.67;79.86;99441.81;4971101;28;20408;-54
2021/01/23 11:41:21;;;;;;;3.95;0.88;;;;;;;4.63;79.93;99440.75;4971018;28;20133;-58
2021/01/23 11:43:49;;;;;;;4.03;1.48;;;;;;;4.58;79.97;99430.63;4970695;28;20055;-53